Decoded Metar for YBAS (ALICE SPRINGS in AUSTRALIA) (IATA:ASP) | Meteo·Mobile Aviation Weather
aviador You're here:

YBAS Decoded Metar

ALICE SPRINGS in AUSTRALIA
Report Time2019-07-22 16:30:00
UTC Time2019-07-22 16:59:46
Flight Rules vfr VFR
Wind290° at 03 kt
W.Decomp.*RWY 30: 2.9 kt HW 0.8 kt LCW
RWY 35: 1.3 kt HW 2.7 kt LCW
Visibility9999 m
Phenomena:N/A
Clouds:N/A
Expected CloudBase > 4,000 ft AGL from Temp-Dew spread
CeilingNone
Temp08°C (ISA -3)
Dew Point-2°C (50% RH)
AAT4.7°C
QNH1019 hPa
Density Alt1,237 ft
Elevation1,775 ft
Report Wrong Elevation
Raw Report
YBAS 221630Z AUTO 29003KT 9999 // NCD 08/M02 Q1019
RF00.0/000.0=

Extra information for YBAS:More info

Metar Taf Metar & Taf Last 4 Metars F.Rules Stats Wind Profile Meteogram Temp Stats Airport Information Weather charts Add Link Nearby VenuesMetar ALERT Operation Metar Decoded Social comments